createdAt,value
2023-01-07T00:01:58.704Z,19.30
2023-01-07T00:07:02.667Z,24.10
2023-01-07T00:12:06.322Z,16.40
2023-01-07T00:17:08.027Z,15.10
2023-01-07T00:22:09.741Z,11.50
2023-01-07T00:27:11.573Z,8.20
2023-01-07T00:32:15.715Z,9.10
2023-01-07T00:37:36.426Z,9.60
2023-01-07T00:43:17.251Z,10.80
2023-01-07T00:48:25.504Z,10.70
2023-01-07T00:53:30.250Z,9.50
2023-01-07T00:58:32.118Z,12.00
2023-01-07T01:03:34.357Z,12.80
2023-01-07T01:08:38.028Z,25.20
2023-01-07T01:13:40.343Z,35.60
2023-01-07T01:18:43.010Z,29.50
2023-01-07T01:23:44.823Z,22.10
2023-01-07T01:28:46.563Z,19.10
2023-01-07T01:33:49.090Z,20.20
2023-01-07T01:38:51.940Z,24.70
2023-01-07T01:43:53.780Z,19.60
2023-01-07T01:49:24.090Z,34.70
2023-01-07T01:54:27.848Z,25.60
2023-01-07T01:59:34.731Z,23.30
2023-01-07T02:04:38.618Z,27.80
2023-01-07T02:09:40.521Z,19.10
2023-01-07T02:15:24.565Z,29.70
2023-01-07T02:20:39.514Z,28.20
2023-01-07T02:26:06.601Z,18.20
2023-01-07T02:31:37.360Z,37.10
2023-01-07T02:36:53.105Z,61.10
2023-01-07T02:41:59.713Z,49.70
2023-01-07T02:47:14.932Z,42.90
2023-01-07T02:52:26.983Z,40.90
2023-01-07T02:57:41.008Z,40.60
2023-01-07T03:02:59.397Z,40.70
2023-01-07T03:08:10.349Z,51.40
2023-01-07T03:13:29.764Z,48.10
2023-01-07T03:18:40.301Z,40.80
2023-01-07T03:23:48.132Z,38.70
2023-01-07T03:28:53.238Z,33.30
2023-01-07T03:34:03.008Z,36.60
2023-01-07T03:39:07.326Z,33.70
2023-01-07T03:44:10.259Z,28.50
2023-01-07T03:49:12.440Z,25.60
2023-01-07T03:54:14.506Z,30.30
2023-01-07T03:59:16.319Z,32.70
2023-01-07T04:04:18.226Z,25.20
2023-01-07T04:09:21.912Z,34.20
2023-01-07T04:14:25.027Z,38.50
2023-01-07T04:19:26.810Z,31.80
2023-01-07T04:24:28.683Z,35.00
2023-01-07T04:29:31.067Z,36.10
2023-01-07T04:34:32.927Z,46.60
2023-01-07T04:39:35.148Z,51.70
2023-01-07T04:44:37.766Z,86.10
2023-01-07T04:49:40.682Z,50.70
2023-01-07T04:54:42.611Z,51.20
2023-01-07T04:59:45.324Z,42.10
2023-01-07T05:04:47.392Z,63.00
2023-01-07T05:09:50.501Z,73.40
2023-01-07T05:14:53.228Z,195.20
2023-01-07T05:19:55.057Z,98.10
2023-01-07T05:24:57.070Z,55.00
2023-01-07T05:30:00.045Z,40.80
2023-01-07T05:35:02.143Z,48.60
2023-01-07T05:40:05.246Z,47.40
2023-01-07T05:45:07.938Z,36.70
2023-01-07T05:50:09.802Z,37.70
2023-01-07T05:55:11.489Z,39.70
2023-01-07T06:00:14.486Z,45.00
2023-01-07T06:05:16.330Z,87.90
2023-01-07T06:10:18.113Z,67.10
2023-01-07T06:15:19.787Z,68.90
2023-01-07T06:20:21.519Z,65.60
2023-01-07T06:25:23.249Z,70.00
2023-01-07T06:30:25.685Z,58.60
2023-01-07T06:35:27.376Z,44.70
2023-01-07T06:40:29.192Z,49.20
2023-01-07T06:45:30.904Z,47.50
2023-01-07T06:50:32.614Z,55.30
2023-01-07T06:55:34.337Z,53.50
2023-01-07T07:00:35.936Z,53.50
2023-01-07T07:05:37.695Z,77.80
2023-01-07T07:10:39.406Z,96.60
2023-01-07T07:15:41.222Z,127.70
2023-01-07T07:20:42.996Z,98.00
2023-01-07T07:25:44.911Z,51.30
2023-01-07T07:30:48.012Z,60.20
2023-01-07T07:35:50.139Z,45.90
2023-01-07T07:40:51.944Z,85.90
2023-01-07T07:45:53.615Z,92.30
2023-01-07T07:50:55.452Z,82.70
2023-01-07T07:55:57.293Z,79.70
2023-01-07T08:00:59.047Z,84.80
2023-01-07T08:06:00.788Z,110.70
2023-01-07T08:11:04.033Z,58.80
2023-01-07T08:16:06.206Z,48.80
2023-01-07T08:21:07.951Z,43.30
2023-01-07T08:26:09.677Z,45.60
2023-01-07T08:31:11.830Z,37.90
2023-01-07T08:36:29.062Z,43.00
2023-01-07T08:41:30.867Z,54.40
2023-01-07T08:46:32.564Z,40.50
2023-01-07T08:51:34.328Z,39.20
2023-01-07T08:56:36.069Z,39.20
2023-01-07T09:01:37.866Z,35.60
2023-01-07T09:06:39.845Z,42.90
2023-01-07T09:11:41.558Z,39.00
2023-01-07T09:16:43.352Z,42.40
2023-01-07T09:21:45.176Z,36.40
2023-01-07T09:26:46.878Z,39.40
2023-01-07T09:31:48.639Z,38.50
2023-01-07T09:36:50.457Z,33.20
2023-01-07T09:42:04.466Z,29.50
2023-01-07T09:47:08.987Z,28.80
2023-01-07T09:52:30.315Z,33.50
2023-01-07T09:57:54.665Z,33.50
2023-01-07T10:03:49.490Z,50.30
2023-01-07T10:09:02.650Z,53.30
2023-01-07T10:14:25.870Z,33.10
2023-01-07T10:19:39.792Z,17.70
2023-01-07T10:24:47.116Z,26.10
2023-01-07T10:29:55.164Z,23.80
2023-01-07T10:34:58.271Z,16.60
2023-01-07T10:40:12.427Z,16.00
2023-01-07T10:45:19.903Z,28.00
2023-01-07T10:50:48.519Z,15.50
2023-01-07T10:56:02.029Z,17.60
2023-01-07T11:01:05.664Z,14.10
2023-01-07T11:06:14.308Z,13.80
2023-01-07T11:11:20.179Z,13.70
2023-01-07T11:16:28.038Z,15.40
2023-01-07T11:21:42.792Z,13.00
2023-01-07T11:26:46.805Z,17.70
2023-01-07T11:32:00.758Z,13.70
2023-01-07T11:37:04.176Z,16.10
2023-01-07T11:42:25.893Z,13.90
2023-01-07T11:47:27.704Z,16.20
2023-01-07T11:52:29.524Z,18.30
2023-01-07T11:57:31.253Z,15.60
2023-01-07T12:02:33.016Z,29.70
2023-01-07T12:07:35.087Z,22.90
2023-01-07T12:12:40.114Z,20.60
2023-01-07T12:17:45.263Z,23.60
2023-01-07T12:22:58.451Z,34.90
2023-01-07T12:28:12.374Z,22.70
2023-01-07T12:33:29.522Z,23.00
2023-01-07T12:38:53.352Z,20.50
2023-01-07T12:44:21.261Z,21.90
2023-01-07T12:49:42.357Z,13.60
2023-01-07T12:55:04.445Z,15.80
2023-01-07T13:00:26.594Z,18.30
2023-01-07T13:05:37.534Z,14.50
2023-01-07T13:10:42.551Z,47.30
2023-01-07T13:15:44.252Z,16.70
2023-01-07T13:21:04.211Z,24.80
2023-01-07T13:26:14.997Z,20.50
2023-01-07T13:31:42.565Z,16.80
2023-01-07T13:36:58.382Z,15.10
2023-01-07T13:42:18.398Z,13.60
2023-01-07T13:47:24.847Z,14.90
2023-01-07T13:52:30.469Z,23.40
2023-01-07T13:57:32.207Z,23.60
2023-01-07T14:03:03.450Z,24.80
2023-01-07T14:08:05.477Z,25.30
2023-01-07T14:13:25.546Z,19.90
2023-01-07T14:18:32.965Z,17.20
2023-01-07T14:23:44.664Z,21.50
2023-01-07T14:28:55.662Z,22.10
2023-01-07T14:34:05.146Z,25.00
2023-01-07T14:39:36.905Z,28.60
2023-01-07T14:44:38.677Z,25.90
2023-01-07T14:49:57.155Z,21.70
2023-01-07T14:55:04.699Z,26.90
2023-01-07T15:00:20.589Z,22.80
2023-01-07T15:05:45.191Z,25.50
2023-01-07T15:11:09.962Z,32.40
2023-01-07T15:16:12.447Z,22.00
2023-01-07T15:21:36.542Z,26.50
2023-01-07T15:27:06.177Z,23.50
2023-01-07T15:32:22.678Z,40.80
2023-01-07T15:37:24.815Z,53.90
2023-01-07T15:42:27.766Z,72.70
2023-01-07T15:47:41.263Z,79.50
2023-01-07T15:52:52.460Z,69.40
2023-01-07T15:58:00.556Z,68.90
2023-01-07T16:03:04.155Z,66.30
2023-01-07T16:08:06.215Z,70.70
2023-01-07T16:13:20.740Z,71.80
2023-01-07T16:18:22.844Z,76.50
2023-01-07T16:23:32.706Z,77.20
2023-01-07T16:28:41.107Z,111.20
2023-01-07T16:33:44.047Z,80.80
2023-01-07T16:38:49.700Z,70.10
2023-01-07T16:43:54.250Z,87.30
2023-01-07T16:49:28.784Z,80.20
2023-01-07T16:54:34.456Z,83.50
2023-01-07T16:59:42.337Z,171.00
2023-01-07T17:04:44.038Z,199.50
2023-01-07T17:09:45.721Z,187.50
2023-01-07T17:14:48.422Z,106.00
2023-01-07T17:20:01.043Z,106.50
2023-01-07T17:25:15.707Z,116.80
2023-01-07T17:30:20.658Z,104.00
2023-01-07T17:35:24.502Z,109.40
2023-01-07T17:40:26.377Z,104.10
2023-01-07T17:45:29.232Z,152.40
2023-01-07T17:50:40.113Z,115.90
2023-01-07T17:55:42.037Z,96.30
2023-01-07T18:00:43.794Z,100.70
2023-01-07T18:05:45.835Z,95.10
2023-01-07T18:11:07.598Z,83.60
2023-01-07T18:16:14.254Z,105.80
2023-01-07T18:21:16.309Z,92.80
2023-01-07T18:26:18.990Z,96.80
2023-01-07T18:31:21.150Z,96.30
2023-01-07T18:36:23.510Z,108.70
2023-01-07T18:41:25.541Z,113.80
2023-01-07T18:46:27.295Z,121.50
2023-01-07T18:51:29.179Z,135.80
2023-01-07T18:56:31.062Z,166.40
2023-01-07T19:01:34.138Z,200.70
2023-01-07T19:06:36.113Z,182.70
2023-01-07T19:11:38.643Z,172.30
2023-01-07T19:16:40.706Z,153.10
2023-01-07T19:21:43.677Z,146.20
2023-01-07T19:26:46.969Z,134.20
2023-01-07T19:31:48.817Z,131.70
2023-01-07T19:36:50.612Z,132.20
2023-01-07T19:41:52.430Z,120.30
2023-01-07T19:46:54.071Z,119.90
2023-01-07T20:01:59.228Z,136.90
2023-01-07T20:07:01.376Z,142.90
2023-01-07T20:12:03.162Z,138.90
2023-01-07T20:17:05.031Z,134.10
2023-01-07T20:22:06.781Z,147.10
2023-01-07T20:27:08.463Z,132.10
2023-01-07T20:37:12.568Z,123.00
2023-01-07T20:42:14.154Z,123.00
2023-01-07T20:47:16.142Z,112.00
2023-01-07T20:52:18.083Z,119.90
2023-01-07T20:57:19.785Z,128.80
2023-01-07T21:02:22.468Z,125.90
2023-01-07T21:07:24.390Z,132.30
2023-01-07T21:12:26.037Z,137.50
2023-01-07T23:06:13.079Z,128.40
2023-01-07T23:11:33.417Z,118.70
2023-01-07T23:16:36.805Z,123.80
2023-01-07T23:21:43.663Z,104.30
2023-01-07T23:26:47.876Z,109.20
2023-01-07T23:31:49.820Z,109.50
2023-01-07T23:36:51.733Z,108.60
2023-01-07T23:41:53.455Z,110.30
2023-01-07T23:46:55.229Z,98.20
2023-01-07T23:51:57.132Z,94.10
2023-01-07T23:56:58.835Z,108.60
